BOE764 KPAE-KSLC
Flight info
| Callsign | BOE764 |
|---|---|
| Flight time | N/A |
| Altitude | 37000 |
| Route | SEA J5 SUMMA J54 BKE BYI BEARR5 |
| Aircraft | B764/H-SDE3FGHIM3RWXY/LB1 |
Departure
| Time | 2026-05-04 12:49 |
|---|---|
| Airport | Seattle Paine Field International Airport (KPAE) |
Arrival
| Time | N/A |
|---|---|
| Airport | Salt Lake City International Airport (KSLC) |
| Time | Latitude | Longitude | Altitude | Speed | Heading |
|---|---|---|---|---|---|
| 2026-05-04 12:32 | 47.91748 | -122.27937 | 567 ft | 0 kts | 91° |
| 2026-05-04 12:38 | 47.91747 | -122.27953 | 567 ft | 2 kts | 86° |
| 2026-05-04 12:38 | 47.91746 | -122.27975 | 566 ft | 2 kts | 90° |
| 2026-05-04 12:38 | 47.91747 | -122.27989 | 566 ft | 2 kts | 90° |
| 2026-05-04 12:39 | 47.91744 | -122.28011 | 565 ft | 2 kts | 62° |
| 2026-05-04 12:39 | 47.91736 | -122.28028 | 564 ft | 2 kts | 42° |
| 2026-05-04 12:39 | 47.91723 | -122.28041 | 564 ft | 2 kts | 21° |
| 2026-05-04 12:39 | 47.91710 | -122.28046 | 563 ft | 1 kts | 2° |
| 2026-05-04 12:40 | 47.91708 | -122.28046 | 563 ft | 1 kts | 360° |
| 2026-05-04 12:40 | 47.91743 | -122.28045 | 564 ft | 7 kts | 360° |
| 2026-05-04 12:40 | 47.91797 | -122.28046 | 565 ft | 7 kts | 0° |
| 2026-05-04 12:40 | 47.91851 | -122.28046 | 566 ft | 7 kts | 0° |
| 2026-05-04 12:41 | 47.91905 | -122.28046 | 566 ft | 7 kts | 360° |
| 2026-05-04 12:41 | 47.91959 | -122.28046 | 566 ft | 7 kts | 360° |
| 2026-05-04 12:41 | 47.92013 | -122.28047 | 565 ft | 7 kts | 0° |
| 2026-05-04 12:41 | 47.92065 | -122.28048 | 564 ft | 6 kts | 0° |
| 2026-05-04 12:42 | 47.92090 | -122.28048 | 564 ft | 1 kts | 0° |
| 2026-05-04 12:42 | 47.92106 | -122.28050 | 563 ft | 5 kts | 349° |
| 2026-05-04 12:42 | 47.92139 | -122.28077 | 562 ft | 5 kts | 318° |
| 2026-05-04 12:42 | 47.92158 | -122.28124 | 559 ft | 4 kts | 288° |
| 2026-05-04 12:43 | 47.92161 | -122.28150 | 558 ft | 1 kts | 275° |
| 2026-05-04 12:43 | 47.92161 | -122.28151 | 558 ft | 0 kts | 275° |
| 2026-05-04 12:43 | 47.92161 | -122.28152 | 558 ft | 0 kts | 275° |
| 2026-05-04 12:45 | 47.92162 | -122.28155 | 558 ft | 1 kts | 276° |
| 2026-05-04 12:45 | 47.92165 | -122.28202 | 556 ft | 7 kts | 276° |
| 2026-05-04 12:45 | 47.92166 | -122.28290 | 553 ft | 9 kts | 266° |
| 2026-05-04 12:46 | 47.92160 | -122.28368 | 552 ft | 9 kts | 263° |
| 2026-05-04 12:46 | 47.92159 | -122.28392 | 552 ft | 8 kts | 264° |
| 2026-05-04 12:46 | 47.92155 | -122.28456 | 554 ft | 5 kts | 267° |
| 2026-05-04 12:46 | 47.92154 | -122.28474 | 554 ft | 4 kts | 267° |
| 2026-05-04 12:47 | 47.92151 | -122.28516 | 555 ft | 3 kts | 260° |
| 2026-05-04 12:47 | 47.92145 | -122.28540 | 556 ft | 3 kts | 242° |
| 2026-05-04 12:47 | 47.92118 | -122.28578 | 557 ft | 5 kts | 209° |
| 2026-05-04 12:47 | 47.92100 | -122.28587 | 558 ft | 1 kts | 187° |
| 2026-05-04 12:48 | 47.92097 | -122.28587 | 558 ft | 2 kts | 182° |
| 2026-05-04 12:48 | 47.91975 | -122.28585 | 560 ft | 39 kts | 179° |
| 2026-05-04 12:48 | 47.91544 | -122.28573 | 564 ft | 84 kts | 179° |
| 2026-05-04 12:48 | 47.90813 | -122.28558 | 578 ft | 123 kts | 179° |
| 2026-05-04 12:49 | 47.89835 | -122.28541 | 618 ft | 153 kts | 179° |
| 2026-05-04 12:49 | 47.88750 | -122.28512 | 873 ft | 163 kts | 178° |
| 2026-05-04 12:49 | 47.87609 | -122.28465 | 1289 ft | 163 kts | 178° |
| 2026-05-04 12:49 | 47.86496 | -122.28463 | 1722 ft | 162 kts | 181° |
| 2026-05-04 12:50 | 47.85316 | -122.28556 | 1979 ft | 173 kts | 182° |
| 2026-05-04 12:50 | 47.84132 | -122.28655 | 2412 ft | 172 kts | 182° |
| 2026-05-04 12:50 | 47.82911 | -122.28725 | 2648 ft | 183 kts | 182° |
| 2026-05-04 12:50 | 47.81597 | -122.28806 | 2878 ft | 197 kts | 182° |
| 2026-05-04 12:51 | 47.80131 | -122.28889 | 2921 ft | 224 kts | 182° |
| 2026-05-04 12:51 | 47.78488 | -122.28982 | 3125 ft | 247 kts | 182° |
| 2026-05-04 12:51 | 47.76734 | -122.29082 | 3626 ft | 260 kts | 182° |
| 2026-05-04 12:51 | 47.74875 | -122.29188 | 4202 ft | 274 kts | 182° |
| 2026-05-04 12:52 | 47.72951 | -122.29298 | 5014 ft | 278 kts | 182° |
| 2026-05-04 12:52 | 47.71015 | -122.29408 | 5873 ft | 281 kts | 182° |
| 2026-05-04 12:52 | 47.69056 | -122.29518 | 6664 ft | 286 kts | 182° |
| 2026-05-04 12:52 | 47.67098 | -122.29630 | 7546 ft | 286 kts | 182° |
| 2026-05-04 12:53 | 47.65095 | -122.29743 | 8255 ft | 293 kts | 182° |
| 2026-05-04 12:53 | 47.63064 | -122.29858 | 9040 ft | 296 kts | 181° |
| 2026-05-04 12:53 | 47.61013 | -122.29975 | 9854 ft | 298 kts | 181° |
| 2026-05-04 12:53 | 47.58926 | -122.30093 | 10419 ft | 310 kts | 181° |
| 2026-05-04 12:54 | 47.56667 | -122.30218 | 10501 ft | 341 kts | 181° |
| 2026-05-04 12:54 | 47.54208 | -122.30357 | 10634 ft | 372 kts | 181° |
| 2026-05-04 12:54 | 47.51534 | -122.30508 | 11016 ft | 395 kts | 181° |
| 2026-05-04 12:54 | 47.48786 | -122.30663 | 11971 ft | 401 kts | 181° |
| 2026-05-04 12:55 | 47.45985 | -122.30821 | 12861 ft | 408 kts | 181° |
| 2026-05-04 12:55 | 47.43136 | -122.30711 | 13725 ft | 415 kts | 172° |
| 2026-05-04 12:55 | 47.40321 | -122.29828 | 14644 ft | 419 kts | 162° |
| 2026-05-04 12:55 | 47.37498 | -122.28603 | 15547 ft | 425 kts | 163° |
| 2026-05-04 12:56 | 47.34648 | -122.27459 | 16403 ft | 432 kts | 163° |
| 2026-05-04 12:56 | 47.31716 | -122.26276 | 17281 ft | 440 kts | 163° |
| 2026-05-04 12:56 | 47.28794 | -122.25106 | 18177 ft | 446 kts | 163° |
| 2026-05-04 12:56 | 47.25764 | -122.23901 | 19121 ft | 451 kts | 163° |
| 2026-05-04 12:57 | 47.22718 | -122.22692 | 19966 ft | 459 kts | 163° |
| 2026-05-04 12:57 | 47.19635 | -122.21470 | 20820 ft | 465 kts | 163° |
| 2026-05-04 12:57 | 47.16524 | -122.20240 | 21647 ft | 470 kts | 163° |
| 2026-05-04 12:57 | 47.13369 | -122.18993 | 22379 ft | 477 kts | 163° |
| 2026-05-04 12:58 | 47.10125 | -122.17713 | 23091 ft | 483 kts | 163° |
| 2026-05-04 12:58 | 47.06897 | -122.16442 | 23848 ft | 487 kts | 163° |
| 2026-05-04 12:58 | 47.03626 | -122.15156 | 24553 ft | 492 kts | 162° |
| 2026-05-04 12:58 | 47.00292 | -122.13847 | 25249 ft | 497 kts | 162° |
| 2026-05-04 12:59 | 46.96986 | -122.12549 | 25932 ft | 501 kts | 162° |
| 2026-05-04 12:59 | 46.93604 | -122.11224 | 26537 ft | 506 kts | 162° |
| 2026-05-04 12:59 | 46.90202 | -122.09893 | 27142 ft | 510 kts | 162° |
| 2026-05-04 12:59 | 46.86740 | -122.08540 | 27583 ft | 516 kts | 162° |
| 2026-05-04 13:00 | 46.83308 | -122.07201 | 28312 ft | 514 kts | 162° |
| 2026-05-04 13:00 | 46.79855 | -122.05856 | 28877 ft | 515 kts | 162° |
| 2026-05-04 13:00 | 46.76407 | -122.04514 | 29627 ft | 512 kts | 162° |
| 2026-05-04 13:00 | 46.72988 | -122.03185 | 30247 ft | 510 kts | 162° |
| 2026-05-04 13:01 | 46.69586 | -122.01726 | 30719 ft | 508 kts | 156° |
| 2026-05-04 13:01 | 46.66413 | -121.99649 | 31210 ft | 502 kts | 147° |
| 2026-05-04 13:01 | 46.63500 | -121.96904 | 31746 ft | 495 kts | 137° |
| 2026-05-04 13:01 | 46.60964 | -121.93626 | 32203 ft | 488 kts | 128° |
| 2026-05-04 13:02 | 46.58841 | -121.89869 | 32750 ft | 479 kts | 119° |
| 2026-05-04 13:02 | 46.57034 | -121.85857 | 33321 ft | 474 kts | 116° |
| 2026-05-04 13:02 | 46.55294 | -121.81819 | 33864 ft | 471 kts | 115° |
| 2026-05-04 13:02 | 46.53597 | -121.77765 | 34340 ft | 470 kts | 114° |
| 2026-05-04 13:03 | 46.51923 | -121.73693 | 34786 ft | 470 kts | 114° |
| 2026-05-04 13:03 | 46.50281 | -121.69655 | 35355 ft | 467 kts | 113° |
| 2026-05-04 13:03 | 46.48638 | -121.65588 | 35732 ft | 468 kts | 113° |
| 2026-05-04 13:03 | 46.46999 | -121.61510 | 36070 ft | 469 kts | 112° |
| 2026-05-04 13:04 | 46.45376 | -121.57476 | 36568 ft | 466 kts | 112° |
| 2026-05-04 13:04 | 46.43731 | -121.53380 | 36936 ft | 466 kts | 112° |
| 2026-05-04 13:04 | 46.42124 | -121.49377 | 37186 ft | 465 kts | 112° |
| 2026-05-04 13:05 | 46.38883 | -121.41316 | 37164 ft | 464 kts | 112° |
| 2026-05-04 13:05 | 46.35626 | -121.33234 | 37126 ft | 466 kts | 113° |
| 2026-05-04 13:06 | 46.32369 | -121.25176 | 37087 ft | 465 kts | 112° |
| 2026-05-04 13:06 | 46.29115 | -121.17145 | 37071 ft | 466 kts | 113° |
| 2026-05-04 13:07 | 46.25834 | -121.09078 | 37056 ft | 463 kts | 113° |
| 2026-05-04 13:07 | 46.22594 | -121.01128 | 37054 ft | 464 kts | 113° |
| 2026-05-04 13:08 | 46.19309 | -120.93091 | 37061 ft | 466 kts | 113° |
| 2026-05-04 13:08 | 46.16020 | -120.85072 | 37067 ft | 465 kts | 113° |
| 2026-05-04 13:09 | 46.12748 | -120.77116 | 37077 ft | 465 kts | 113° |
| 2026-05-04 13:09 | 46.09443 | -120.69102 | 37073 ft | 466 kts | 112° |
| 2026-05-04 13:10 | 46.06162 | -120.61170 | 37062 ft | 464 kts | 113° |
| 2026-05-04 13:10 | 46.05061 | -120.58511 | 37068 ft | 464 kts | 113° |